Time;durP1;ratioP1;P1;durP2;ratioP2;P2;SDS_P1;SDS_P2;PMS_P1;PMS_P2;Temp;Humidity;BMP_temperature;BMP_pressure;BME280_temperature;BME280_humidity;BME280_pressure;Samples;Min_cycle;Max_cycle;Signal;HPM_P1;HPM_P2
2022/03/12 00:05:07;;;;;;;13.70;6.17;;;6.40;32.90;;;;;;20831172;28;20289;-65
2022/03/12 00:15:12;;;;;;;11.20;5.20;;;6.20;33.30;;;;;;20829593;28;20235;-64
2022/03/12 00:25:18;;;;;;;9.63;5.70;;;6.10;33.50;;;;;;20846087;28;20809;-62
2022/03/12 00:35:22;;;;;;;11.90;5.90;;;6.00;33.70;;;;;;20845548;28;20421;-65
2022/03/12 00:45:24;;;;;;;10.17;5.80;;;5.80;34.00;;;;;;20844405;28;20733;-64
2022/03/12 00:55:27;;;;;;;13.37;5.60;;;5.70;34.20;;;;;;20843173;28;20259;-66
2022/03/12 01:05:47;;;;;;;8.43;5.80;;;5.70;34.90;;;;;;20843351;28;20298;-67
2022/03/12 01:15:50;;;;;;;7.93;5.17;;;5.60;35.00;;;;;;20842786;28;20208;-66
2022/03/12 01:25:52;;;;;;;9.73;5.17;;;5.60;34.50;;;;;;20846175;28;20228;-64
2022/03/12 01:35:54;;;;;;;12.50;5.10;;;5.60;34.10;;;;;;20840008;28;20267;-63
2022/03/12 01:46:01;;;;;;;8.87;5.33;;;5.60;34.60;;;;;;20838973;28;20781;-64
2022/03/12 01:56:04;;;;;;;10.97;4.73;;;5.60;33.60;;;;;;20838308;28;20834;-63
2022/03/12 02:06:06;;;;;;;11.80;5.60;;;5.60;33.90;;;;;;20837498;28;20232;-63
2022/03/12 02:16:09;;;;;;;8.53;5.03;;;5.70;33.50;;;;;;20836554;28;20258;-64
2022/03/12 02:26:11;;;;;;;7.37;4.70;;;5.60;33.00;;;;;;20835916;28;20237;-64
2022/03/12 02:36:18;;;;;;;8.93;5.23;;;5.70;33.50;;;;;;20835673;28;20212;-64
2022/03/12 02:46:20;;;;;;;10.87;4.83;;;5.60;33.00;;;;;;20834421;28;20252;-63
2022/03/12 02:56:24;;;;;;;9.43;4.47;;;5.60;32.90;;;;;;20833513;28;20208;-65
2022/03/12 03:16:18;;;;;;;5.77;4.20;;;5.50;32.10;;;;;;21067675;27;21103;-65
2022/03/12 03:26:38;;;;;;;6.73;4.30;;;5.50;32.20;;;;;;21066717;28;20658;-65
2022/03/12 03:36:40;;;;;;;7.17;3.93;;;5.50;32.60;;;;;;21066251;28;20207;-72
2022/03/12 03:46:42;;;;;;;7.10;4.30;;;5.30;32.00;;;;;;21065111;28;20284;-63
2022/03/12 03:56:43;;;;;;;7.63;4.10;;;5.30;32.00;;;;;;21067999;28;20214;-66
2022/03/12 04:06:45;;;;;;;6.57;4.07;;;5.30;32.10;;;;;;21060988;28;20228;-66
2022/03/12 04:16:47;;;;;;;11.37;4.50;;;5.20;32.50;;;;;;20978748;28;20211;-63
2022/03/12 04:26:50;;;;;;;6.73;4.50;;;5.20;33.00;;;;;;20927050;28;20235;-66
2022/03/12 04:36:52;;;;;;;6.87;4.30;;;5.10;32.70;;;;;;20923143;28;20259;-64
2022/03/12 04:46:54;;;;;;;7.03;4.00;;;5.00;32.90;;;;;;20921616;28;20588;-65
2022/03/12 04:56:56;;;;;;;9.63;4.27;;;5.10;32.70;;;;;;20920865;28;20200;-68
2022/03/12 05:06:58;;;;;;;7.90;4.53;;;5.20;33.80;;;;;;20920220;28;20298;-66
2022/03/12 05:17:02;;;;;;;6.63;4.07;;;5.10;32.80;;;;;;20919621;28;20211;-64
2022/03/12 05:27:12;;;;;;;8.93;4.47;;;5.20;32.80;;;;;;20918562;28;20231;-65
2022/03/12 05:37:14;;;;;;;7.63;4.70;;;5.20;32.80;;;;;;20917662;28;20253;-65
2022/03/12 05:47:17;;;;;;;9.07;4.40;;;5.10;32.50;;;;;;20916522;28;20347;-67
2022/03/12 05:57:18;;;;;;;9.37;4.33;;;5.20;33.10;;;;;;20916749;28;20277;-66
2022/03/12 06:07:27;;;;;;;7.60;4.63;;;5.10;32.20;;;;;;20915175;28;20247;-63
2022/03/12 06:17:30;;;;;;;6.60;4.23;;;5.10;32.30;;;;;;20914444;28;20638;-64
2022/03/12 06:27:32;;;;;;;7.87;4.90;;;5.10;32.50;;;;;;20914542;28;20246;-65
2022/03/12 06:37:34;;;;;;;11.73;5.00;;;5.10;32.70;;;;;;20913272;28;20673;-73
2022/03/12 06:47:38;;;;;;;9.87;4.70;;;5.20;33.10;;;;;;20912028;28;20239;-68
2022/03/12 06:57:40;;;;;;;7.43;4.60;;;5.20;33.10;;;;;;20912081;28;20208;-65
2022/03/12 07:07:42;;;;;;;7.60;4.80;;;5.40;33.30;;;;;;20934557;28;20240;-66
2022/03/12 07:17:44;;;;;;;8.37;5.10;;;5.60;33.00;;;;;;20982116;28;20214;-64
2022/03/12 07:27:46;;;;;;;10.07;5.47;;;5.70;32.90;;;;;;20993254;28;20628;-64
2022/03/12 07:37:49;;;;;;;7.97;4.83;;;5.80;32.60;;;;;;20966895;28;20721;-64
2022/03/12 07:47:52;;;;;;;13.03;5.10;;;6.20;32.10;;;;;;20909957;28;20777;-67
2022/03/12 07:57:53;;;;;;;8.07;5.20;;;6.20;32.00;;;;;;20938071;28;20211;-66
2022/03/12 08:07:56;;;;;;;9.77;4.83;;;6.10;32.60;;;;;;20981943;28;20238;-64
2022/03/12 08:17:57;;;;;;;8.47;5.00;;;6.40;32.00;;;;;;20931706;28;20200;-63
2022/03/12 08:27:59;;;;;;;10.63;5.30;;;6.60;31.80;;;;;;20921858;28;20239;-64
2022/03/12 08:38:01;;;;;;;7.27;5.10;;;6.90;31.70;;;;;;20995767;28;20208;-63
2022/03/12 08:48:03;;;;;;;7.83;5.17;;;7.10;31.20;;;;;;21003486;28;20325;-65
2022/03/12 08:58:05;;;;;;;8.30;4.97;;;7.30;30.80;;;;;;21004046;28;20204;-65
2022/03/12 09:08:08;;;;;;;9.17;5.33;;;7.50;30.40;;;;;;21003441;28;20293;-67
2022/03/12 09:18:11;;;;;;;9.20;5.33;;;7.60;30.30;;;;;;21002656;28;20208;-65
2022/03/12 09:28:13;;;;;;;8.80;5.53;;;8.00;29.90;;;;;;21001542;28;20329;-64
2022/03/12 09:38:18;;;;;;;8.70;5.30;;;8.30;29.60;;;;;;21001165;28;20658;-67
2022/03/12 09:48:19;;;;;;;9.77;5.33;;;8.30;29.80;;;;;;20999842;28;20237;-67
2022/03/12 09:58:21;;;;;;;8.87;5.40;;;8.60;29.30;;;;;;21013989;28;20256;-66
2022/03/12 10:08:23;;;;;;;8.03;5.43;;;8.60;29.60;;;;;;20995803;28;20242;-69
2022/03/12 10:18:25;;;;;;;16.83;5.67;;;8.80;29.60;;;;;;20997085;28;20245;-64
2022/03/12 10:28:29;;;;;;;9.67;5.30;;;9.20;29.20;;;;;;21001667;28;20227;-63
2022/03/12 10:38:38;;;;;;;9.03;5.60;;;9.40;29.30;;;;;;20996510;28;20278;-65
2022/03/12 10:48:39;;;;;;;9.80;6.00;;;9.60;29.40;;;;;;20995770;28;20235;-67
2022/03/12 10:58:41;;;;;;;9.60;5.70;;;9.70;29.40;;;;;;20995436;28;20216;-65
2022/03/12 11:08:43;;;;;;;10.90;6.00;;;9.80;29.80;;;;;;20995204;28;20269;-64
2022/03/12 11:18:54;;;;;;;9.00;6.33;;;9.90;29.80;;;;;;20994901;28;20208;-65
2022/03/12 11:28:58;;;;;;;10.43;6.43;;;10.10;29.00;;;;;;20994361;28;20698;-64
2022/03/12 11:39:04;;;;;;;15.33;6.77;;;10.20;29.00;;;;;;21010302;28;20611;-64
2022/03/12 11:49:06;;;;;;;11.20;6.47;;;10.30;29.40;;;;;;21009255;28;20235;-65
2022/03/12 11:59:07;;;;;;;9.87;6.43;;;10.60;29.20;;;;;;21008192;28;20214;-63
2022/03/12 12:09:09;;;;;;;9.97;6.90;;;10.70;29.60;;;;;;21001261;28;20240;-69
2022/03/12 12:19:11;;;;;;;9.10;6.73;;;11.10;29.80;;;;;;21004653;28;20257;-72
2022/03/12 12:29:13;;;;;;;12.17;7.23;;;11.50;29.80;;;;;;21005917;28;20234;-65
2022/03/12 12:39:15;;;;;;;15.50;9.70;;;11.70;29.90;;;;;;21005024;28;20675;-64
2022/03/12 12:49:17;;;;;;;10.57;6.73;;;12.00;29.90;;;;;;21000566;28;20238;-65
2022/03/12 12:59:19;;;;;;;9.73;6.67;;;12.60;32.80;;;;;;20959915;28;20209;-61
2022/03/12 13:09:31;;;;;;;13.90;7.50;;;12.70;33.20;;;;;;20968994;28;20297;-63
2022/03/12 13:19:34;;;;;;;9.63;6.77;;;12.90;32.70;;;;;;20920260;28;20259;-62
2022/03/12 13:29:36;;;;;;;11.80;5.93;;;13.00;31.40;;;;;;20978588;28;20264;-63
2022/03/12 13:39:38;;;;;;;10.30;6.63;;;13.30;31.80;;;;;;21000572;28;20215;-64
2022/03/12 13:49:42;;;;;;;14.50;6.80;;;13.60;32.10;;;;;;20983751;28;20290;-64
2022/03/12 13:59:44;;;;;;;14.43;6.70;;;14.10;30.70;;;;;;20961138;28;20237;-63
2022/03/12 14:09:46;;;;;;;9.37;6.30;;;14.10;30.50;;;;;;20940538;28;20235;-63
2022/03/12 14:19:58;;;;;;;11.50;6.73;;;14.80;31.60;;;;;;20994082;28;20302;-63
2022/03/12 14:30:00;;;;;;;16.20;6.53;;;15.20;28.20;;;;;;20914948;28;20238;-65
2022/03/12 14:40:04;;;;;;;12.90;7.17;;;15.90;27.50;;;;;;20912947;28;20606;-64
2022/03/12 14:50:08;;;;;;;11.93;7.40;;;16.40;27.10;;;;;;20911117;28;20325;-71
2022/03/12 15:00:19;;;;;;;10.87;7.77;;;17.60;26.50;;;;;;20913513;28;20223;-64
2022/03/12 15:10:27;;;;;;;13.73;7.43;;;17.50;25.90;;;;;;20911711;28;20572;-65
2022/03/12 15:20:39;;;;;;;11.37;7.57;;;19.20;24.80;;;;;;20912200;28;20204;-65
2022/03/12 15:30:44;;;;;;;9.63;7.17;;;19.40;25.20;;;;;;20911710;28;20239;-73
2022/03/12 15:40:46;;;;;;;15.77;7.50;;;19.80;23.70;;;;;;20911079;28;20235;-65
2022/03/12 15:50:48;;;;;;;11.77;7.50;;;18.80;24.00;;;;;;20910954;28;20566;-69
2022/03/12 16:00:53;;;;;;;12.60;7.90;;;18.10;24.30;;;;;;20921500;28;20232;-67
2022/03/12 16:10:56;;;;;;;12.97;7.70;;;16.00;24.70;;;;;;20913722;28;20576;-74
2022/03/12 16:20:59;;;;;;;11.10;7.70;;;15.10;25.20;;;;;;20924156;28;20249;-75
2022/03/12 16:31:01;;;;;;;10.00;7.43;;;14.20;25.70;;;;;;20923813;28;20731;-71
2022/03/12 16:41:05;;;;;;;13.07;8.17;;;13.70;26.10;;;;;;20920634;28;20215;-73
2022/03/12 16:51:08;;;;;;;13.13;8.00;;;13.40;26.40;;;;;;20920002;28;20235;-71
2022/03/12 17:01:11;;;;;;;10.67;7.80;;;13.30;26.80;;;;;;20919758;28;20209;-65
2022/03/12 17:11:15;;;;;;;15.13;8.00;;;12.80;26.80;;;;;;20919899;28;20276;-74
2022/03/12 17:28:17;;;;;;;17.80;9.37;;;12.50;27.20;;;;;;20983625;28;20571;-70
2022/03/12 17:38:19;;;;;;;19.80;9.10;;;12.20;28.10;;;;;;20982522;28;20212;-70
2022/03/12 17:48:21;;;;;;;14.43;9.20;;;11.70;28.80;;;;;;20981388;28;20209;-66
2022/03/12 17:58:23;;;;;;;22.03;11.90;;;11.10;29.80;;;;;;20968987;28;20261;-75
2022/03/12 18:08:24;;;;;;;24.13;12.90;;;10.70;30.60;;;;;;20944889;28;20265;-80
2022/03/12 18:18:26;;;;;;;18.43;11.90;;;10.60;30.90;;;;;;20959733;28;20209;-72
2022/03/12 18:28:28;;;;;;;22.17;13.20;;;10.10;32.40;;;;;;20977822;28;20609;-70
2022/03/12 18:38:30;;;;;;;24.00;14.27;;;9.90;33.70;;;;;;20929545;28;20284;-72
2022/03/12 18:48:32;;;;;;;28.13;13.87;;;9.60;34.70;;;;;;20922750;28;20211;-67
2022/03/12 18:58:35;;;;;;;22.80;14.83;;;9.30;35.40;;;;;;20921876;28;20654;-66
2022/03/12 19:08:36;;;;;;;31.10;18.30;;;9.10;35.90;;;;;;20921428;28;20215;-63
2022/03/12 19:18:39;;;;;;;25.83;13.53;;;8.90;36.60;;;;;;20920270;28;20293;-66
2022/03/12 19:28:42;;;;;;;21.37;13.53;;;8.80;36.70;;;;;;20919594;28;20619;-70
2022/03/12 19:38:44;;;;;;;21.90;14.73;;;8.50;38.60;;;;;;20916380;28;20297;-65
2022/03/12 19:48:47;;;;;;;33.50;14.97;;;8.20;39.30;;;;;;20914373;28;20205;-64
2022/03/12 19:58:48;;;;;;;28.33;15.63;;;8.10;40.10;;;;;;20914512;28;20287;-64
2022/03/12 20:08:51;;;;;;;30.93;17.67;;;7.80;39.40;;;;;;20913397;28;20202;-63
2022/03/12 20:18:57;;;;;;;32.47;16.90;;;7.60;39.70;;;;;;20906186;28;20236;-64
2022/03/12 20:28:59;;;;;;;28.10;16.47;;;7.50;40.60;;;;;;20911959;28;20213;-65
2022/03/12 20:39:02;;;;;;;27.63;16.80;;;7.20;41.70;;;;;;20911435;28;20695;-66
2022/03/12 20:49:04;;;;;;;27.80;16.53;;;7.00;41.30;;;;;;20911044;28;20211;-64
2022/03/12 20:59:05;;;;;;;34.00;16.90;;;7.00;41.70;;;;;;20909854;28;20270;-65
2022/03/12 21:09:07;;;;;;;33.13;16.73;;;6.80;41.10;;;;;;20909910;28;20203;-65
2022/03/12 21:19:09;;;;;;;27.90;15.43;;;6.60;41.40;;;;;;20909459;28;20722;-65
2022/03/12 21:29:11;;;;;;;34.20;16.67;;;6.40;42.10;;;;;;20908347;28;20204;-75
2022/03/12 21:39:14;;;;;;;29.67;16.27;;;6.40;42.70;;;;;;20908728;28;20643;-64
2022/03/12 21:49:16;;;;;;;29.77;15.97;;;6.20;43.00;;;;;;20907474;28;20212;-65
2022/03/12 21:59:18;;;;;;;25.57;15.60;;;5.90;43.60;;;;;;20907927;28;20232;-73
2022/03/12 22:09:20;;;;;;;33.63;16.47;;;5.70;44.30;;;;;;20914004;28;20620;-76
2022/03/12 22:19:21;;;;;;;28.00;16.00;;;5.50;44.40;;;;;;20865040;28;20783;-74
2022/03/12 22:29:23;;;;;;;31.10;16.00;;;5.40;44.80;;;;;;20841400;28;20557;-71
2022/03/12 22:39:25;;;;;;;36.63;16.70;;;5.50;43.90;;;;;;20848253;28;20237;-66
2022/03/12 22:49:26;;;;;;;31.27;17.77;;;5.30;45.10;;;;;;20845521;28;20617;-70
2022/03/12 22:59:28;;;;;;;29.37;17.07;;;5.20;45.30;;;;;;20839457;28;20236;-67
2022/03/12 23:09:30;;;;;;;30.23;16.70;;;5.10;46.00;;;;;;20838716;28;20560;-69
2022/03/12 23:19:34;;;;;;;31.53;16.57;;;4.90;46.20;;;;;;20837850;28;20290;-65
2022/03/12 23:29:35;;;;;;;27.73;16.03;;;4.90;46.20;;;;;;20836998;28;20213;-73
2022/03/12 23:39:37;;;;;;;26.70;14.87;;;4.90;47.10;;;;;;20836109;28;20285;-72
2022/03/12 23:49:39;;;;;;;32.30;16.03;;;4.80;46.60;;;;;;20835878;28;20246;-70
